createdAt,value
2023-01-04T00:00:16.288Z,72.72
2023-01-04T00:02:44.675Z,74.29
2023-01-04T00:05:14.539Z,74.77
2023-01-04T00:07:42.873Z,73.90
2023-01-04T00:10:11.158Z,74.26
2023-01-04T00:12:39.459Z,74.13
2023-01-04T00:15:09.153Z,73.38
2023-01-04T00:17:37.439Z,74.39
2023-01-04T00:20:06.390Z,73.64
2023-01-04T00:22:36.295Z,75.11
2023-01-04T00:25:04.985Z,73.53
2023-01-04T00:27:33.327Z,73.77
2023-01-04T00:30:01.560Z,74.15
2023-01-04T00:32:29.943Z,74.51
2023-01-04T00:34:58.253Z,75.07
2023-01-04T00:37:26.504Z,77.42
2023-01-04T00:39:56.247Z,76.61
2023-01-04T00:42:24.507Z,76.67
2023-01-04T00:44:52.763Z,77.76
2023-01-04T00:47:21.167Z,75.90
2023-01-04T00:49:49.419Z,77.95
2023-01-04T00:52:17.634Z,76.63
2023-01-04T00:54:46.535Z,78.29
2023-01-04T00:57:16.143Z,75.86
2023-01-04T00:59:44.382Z,75.34
2023-01-04T01:02:12.919Z,73.96
2023-01-04T01:04:41.421Z,77.02
2023-01-04T01:07:09.722Z,78.71
2023-01-04T01:09:38.053Z,80.56
2023-01-04T01:12:06.675Z,78.42
2023-01-04T01:14:36.413Z,78.13
2023-01-04T01:17:04.786Z,77.34
2023-01-04T01:19:33.359Z,75.94
2023-01-04T01:22:01.726Z,75.33
2023-01-04T01:24:30.030Z,74.43
2023-01-04T01:26:58.495Z,74.96
2023-01-04T01:29:27.124Z,76.10
2023-01-04T01:31:56.842Z,76.08
2023-01-04T01:34:25.099Z,75.54
2023-01-04T01:36:53.361Z,74.65
2023-01-04T01:39:21.824Z,73.95
2023-01-04T01:41:50.655Z,75.74
2023-01-04T01:45:11.250Z,74.66
2023-01-04T01:47:45.175Z,75.16
2023-01-04T01:50:24.187Z,75.76
2023-01-04T01:52:54.415Z,74.56
2023-01-04T01:55:23.935Z,76.32
2023-01-04T01:57:55.077Z,77.28
2023-01-04T02:00:23.680Z,77.40
2023-01-04T02:03:04.140Z,80.61
2023-01-04T02:05:34.009Z,75.37
2023-01-04T02:08:04.240Z,75.21
2023-01-04T02:10:33.717Z,74.20
2023-01-04T02:13:07.607Z,74.52
2023-01-04T02:15:45.999Z,77.94
2023-01-04T02:18:22.816Z,76.23
2023-01-04T02:21:00.397Z,76.46
2023-01-04T02:24:17.842Z,76.13
2023-01-04T02:27:19.037Z,76.61
2023-01-04T02:30:19.790Z,78.83
2023-01-04T02:33:07.260Z,77.55
2023-01-04T02:35:45.096Z,75.89
2023-01-04T02:38:21.760Z,75.92
2023-01-04T02:40:58.811Z,75.59
2023-01-04T02:43:49.818Z,75.72
2023-01-04T02:46:25.609Z,76.07
2023-01-04T02:49:12.789Z,76.12
2023-01-04T02:51:43.371Z,76.36
2023-01-04T02:54:14.976Z,76.26
2023-01-04T02:57:06.292Z,75.72
2023-01-04T02:59:58.334Z,74.88
2023-01-04T03:03:12.519Z,77.18
2023-01-04T03:06:06.773Z,76.58
2023-01-04T03:08:39.501Z,77.66
2023-01-04T03:11:31.337Z,75.84
2023-01-04T03:14:31.479Z,75.79
2023-01-04T03:16:53.824Z,74.55
2023-01-04T03:19:39.129Z,75.50
2023-01-04T03:22:30.437Z,74.38
2023-01-04T03:25:18.008Z,76.05
2023-01-04T03:28:09.600Z,76.88
2023-01-04T03:31:03.805Z,78.76
2023-01-04T03:33:50.331Z,77.78
2023-01-04T03:36:28.481Z,77.19
2023-01-04T03:39:21.889Z,77.82
2023-01-04T03:42:15.096Z,79.82
2023-01-04T03:45:10.213Z,76.67
2023-01-04T03:48:02.920Z,78.68
2023-01-04T03:50:38.764Z,77.77
2023-01-04T03:53:08.705Z,76.63
2023-01-04T03:55:40.829Z,76.06
2023-01-04T03:58:09.282Z,76.67
2023-01-04T04:00:37.604Z,74.92
2023-01-04T04:03:08.733Z,76.80
2023-01-04T04:05:59.796Z,74.88
2023-01-04T04:08:29.059Z,75.26
2023-01-04T04:11:20.161Z,75.12
2023-01-04T04:13:49.456Z,76.17
2023-01-04T04:16:19.018Z,75.34
2023-01-04T04:18:48.209Z,77.32
2023-01-04T04:21:16.610Z,77.87
2023-01-04T04:23:45.200Z,76.08
2023-01-04T04:26:15.061Z,79.43
2023-01-04T04:28:43.849Z,86.10
2023-01-04T04:31:12.167Z,87.18
2023-01-04T04:33:40.644Z,87.25
2023-01-04T04:36:09.902Z,88.11
2023-01-04T04:38:40.757Z,89.64
2023-01-04T04:41:27.448Z,88.42
2023-01-04T04:43:57.199Z,86.22
2023-01-04T04:46:28.884Z,86.48
2023-01-04T04:48:57.485Z,85.65
2023-01-04T04:51:25.936Z,85.68
2023-01-04T04:53:54.261Z,84.95
2023-01-04T04:56:23.091Z,90.16
2023-01-04T04:58:51.656Z,92.64
2023-01-04T05:01:21.725Z,89.76
2023-01-04T05:03:50.254Z,87.63
2023-01-04T05:06:18.642Z,86.91
2023-01-04T05:08:46.945Z,86.23
2023-01-04T05:11:18.593Z,86.94
2023-01-04T05:13:45.894Z,87.79
2023-01-04T05:16:14.194Z,87.60
2023-01-04T05:18:43.964Z,87.41
2023-01-04T05:21:16.897Z,87.96
2023-01-04T05:23:48.123Z,87.47
2023-01-04T05:26:16.414Z,85.71
2023-01-04T05:28:49.928Z,84.84
2023-01-04T05:31:20.823Z,85.31
2023-01-04T05:33:50.527Z,87.02
2023-01-04T05:36:18.833Z,88.21
2023-01-04T05:38:47.251Z,87.18
2023-01-04T05:41:29.435Z,87.86
2023-01-04T05:43:57.860Z,90.98
2023-01-04T05:46:28.643Z,91.83
2023-01-04T05:48:58.603Z,88.65
2023-01-04T05:51:26.970Z,86.66
2023-01-04T05:53:55.174Z,86.31
2023-01-04T05:56:23.494Z,85.77
2023-01-04T05:58:51.932Z,85.27
2023-01-04T06:01:20.391Z,84.67
2023-01-04T06:03:48.915Z,85.07
2023-01-04T06:06:18.812Z,85.58
2023-01-04T06:08:47.125Z,85.26
2023-01-04T06:11:15.517Z,84.54
2023-01-04T06:13:43.844Z,83.88
2023-01-04T06:16:12.124Z,83.41
2023-01-04T06:18:40.488Z,80.09
2023-01-04T06:21:11.123Z,79.80
2023-01-04T06:23:40.765Z,79.90
2023-01-04T06:26:09.107Z,78.42
2023-01-04T06:28:40.932Z,77.30
2023-01-04T06:31:11.262Z,76.12
2023-01-04T06:33:39.936Z,75.98
2023-01-04T06:36:19.822Z,76.07
2023-01-04T06:38:50.721Z,75.59
2023-01-04T06:41:19.196Z,75.70
2023-01-04T06:43:47.512Z,77.37
2023-01-04T06:46:15.747Z,77.37
2023-01-04T06:48:44.295Z,75.45
2023-01-04T06:51:12.983Z,72.83
2023-01-04T06:53:41.502Z,71.05
2023-01-04T06:56:11.210Z,70.83
2023-01-04T06:58:39.960Z,69.17
2023-01-04T07:01:08.674Z,68.77
2023-01-04T07:03:37.141Z,67.49
2023-01-04T07:06:07.315Z,66.85
2023-01-04T07:08:36.269Z,68.11
2023-01-04T07:11:04.845Z,68.21
2023-01-04T07:13:34.717Z,66.54
2023-01-04T07:16:03.038Z,67.46
2023-01-04T07:18:31.298Z,67.56
2023-01-04T07:20:59.670Z,66.78
2023-01-04T07:23:28.044Z,66.57
2023-01-04T07:25:56.252Z,66.12
2023-01-04T07:28:41.113Z,65.05
2023-01-04T07:31:11.120Z,64.28
2023-01-04T07:33:39.703Z,62.81
2023-01-04T07:36:08.900Z,61.49
2023-01-04T07:38:37.380Z,61.28
2023-01-04T07:41:06.000Z,62.39
2023-01-04T07:43:34.277Z,62.08
2023-01-04T07:46:03.354Z,61.41
2023-01-04T07:48:33.050Z,61.17
2023-01-04T07:51:01.358Z,61.64
2023-01-04T07:53:29.656Z,61.11
2023-01-04T07:55:58.699Z,59.91
2023-01-04T07:58:27.295Z,58.48
2023-01-04T08:00:55.831Z,57.81
2023-01-04T08:03:24.070Z,56.62
2023-01-04T08:05:57.469Z,56.39
2023-01-04T08:08:25.790Z,57.11
2023-01-04T08:10:54.089Z,55.64
2023-01-04T08:13:23.019Z,55.35
2023-01-04T08:15:54.441Z,55.69
2023-01-04T08:18:22.938Z,54.97
2023-01-04T08:20:56.639Z,53.20
2023-01-04T08:23:28.260Z,54.28
2023-01-04T08:25:56.467Z,52.70
2023-01-04T08:28:24.792Z,52.86
2023-01-04T08:30:53.199Z,53.76
2023-01-04T08:33:21.527Z,51.90
2023-01-04T08:35:49.793Z,51.65
2023-01-04T08:38:58.261Z,50.48
2023-01-04T08:41:23.500Z,49.89
2023-01-04T08:43:56.371Z,51.22
2023-01-04T08:46:24.763Z,50.27
2023-01-04T08:48:53.597Z,48.98
2023-01-04T08:51:22.107Z,48.63
2023-01-04T08:53:50.803Z,47.39
2023-01-04T08:56:20.484Z,48.27
2023-01-04T08:58:48.817Z,47.46
2023-01-04T09:01:17.234Z,47.16
2023-01-04T09:03:46.884Z,47.57
2023-01-04T09:06:17.034Z,47.47
2023-01-04T09:08:45.634Z,46.16
2023-01-04T09:11:15.672Z,45.74
2023-01-04T09:13:46.141Z,46.26
2023-01-04T09:16:17.051Z,45.36
2023-01-04T09:18:46.159Z,44.81
2023-01-04T09:21:16.349Z,44.93
2023-01-04T09:23:46.077Z,44.49
2023-01-04T09:26:16.246Z,45.32
2023-01-04T09:28:46.529Z,44.41
2023-01-04T09:31:16.713Z,43.56
2023-01-04T09:34:13.288Z,42.96
2023-01-04T09:36:34.081Z,43.04
2023-01-04T09:39:02.364Z,43.74
2023-01-04T09:41:33.639Z,43.60
2023-01-04T09:44:08.416Z,43.20
2023-01-04T09:46:45.770Z,42.48
2023-01-04T09:49:20.410Z,41.74
2023-01-04T09:51:57.917Z,41.40
2023-01-04T09:54:35.506Z,41.07
2023-01-04T09:57:06.559Z,41.12
2023-01-04T09:59:36.381Z,41.30
2023-01-04T10:02:12.338Z,40.48
2023-01-04T10:04:47.719Z,41.32
2023-01-04T10:07:20.132Z,41.19
2023-01-04T10:09:48.428Z,40.38
2023-01-04T10:12:31.063Z,40.19
2023-01-04T10:15:12.904Z,40.48
2023-01-04T10:24:04.193Z,39.19
2023-01-04T10:26:39.345Z,38.66
2023-01-04T10:29:33.547Z,38.14
2023-01-04T10:32:06.482Z,36.44
2023-01-04T10:34:42.067Z,35.56
2023-01-04T10:37:16.355Z,36.04
2023-01-04T10:39:46.040Z,34.85
2023-01-04T10:42:21.040Z,34.33
2023-01-04T10:45:05.090Z,34.94
2023-01-04T10:47:45.774Z,34.07
2023-01-04T10:50:23.773Z,35.25
2023-01-04T10:52:57.525Z,35.79
2023-01-04T10:55:33.099Z,35.28
2023-01-04T10:58:05.953Z,35.89
2023-01-04T11:00:39.474Z,35.44
2023-01-04T11:03:17.245Z,36.45
2023-01-04T11:05:51.187Z,35.87
2023-01-04T11:08:24.976Z,35.64
2023-01-04T11:10:58.174Z,35.34
2023-01-04T11:13:26.698Z,35.20
2023-01-04T11:15:55.566Z,35.01
2023-01-04T11:18:25.482Z,35.08
2023-01-04T11:20:54.325Z,34.35
2023-01-04T11:23:22.625Z,34.36
2023-01-04T11:25:56.369Z,33.61
2023-01-04T11:28:29.568Z,33.77
2023-01-04T11:31:06.753Z,33.64
2023-01-04T11:33:53.154Z,33.56
2023-01-04T11:36:38.647Z,35.04
2023-01-04T11:39:08.713Z,34.04
2023-01-04T11:41:37.047Z,34.08
2023-01-04T11:44:08.925Z,34.54
2023-01-04T11:46:37.128Z,34.50
2023-01-04T11:49:11.833Z,34.11
2023-01-04T11:51:42.781Z,34.25
2023-01-04T11:54:21.442Z,36.16
2023-01-04T11:57:11.937Z,35.24
2023-01-04T11:59:40.896Z,34.59
2023-01-04T12:02:42.695Z,35.40
2023-01-04T12:05:24.535Z,31.83
2023-01-04T12:07:57.987Z,32.09
2023-01-04T12:10:28.907Z,31.06
2023-01-04T12:12:58.648Z,32.57
2023-01-04T12:15:35.829Z,31.35
2023-01-04T12:18:08.794Z,32.17
2023-01-04T12:20:38.573Z,31.68
2023-01-04T12:23:07.172Z,33.13
2023-01-04T12:25:40.464Z,34.99
2023-01-04T12:28:28.702Z,34.58
2023-01-04T12:30:57.076Z,33.90
2023-01-04T12:33:41.329Z,33.84
2023-01-04T12:36:12.329Z,32.23
2023-01-04T12:39:01.070Z,31.25
2023-01-04T12:42:22.223Z,32.62
2023-01-04T12:45:17.235Z,31.52
2023-01-04T12:48:12.867Z,31.49
2023-01-04T12:51:32.219Z,31.33
2023-01-04T12:54:04.767Z,31.75
2023-01-04T12:57:10.649Z,31.41
2023-01-04T12:59:39.743Z,30.41
2023-01-04T13:02:19.411Z,31.74
2023-01-04T13:04:48.606Z,32.33
2023-01-04T13:07:22.054Z,31.62
2023-01-04T13:09:55.392Z,31.16
2023-01-04T13:12:56.629Z,31.02
2023-01-04T13:15:35.685Z,31.51
2023-01-04T13:18:11.856Z,31.07
2023-01-04T13:20:40.908Z,30.97
2023-01-04T13:23:14.113Z,31.71
2023-01-04T13:25:43.823Z,32.28
2023-01-04T13:28:19.940Z,31.70
2023-01-04T13:30:48.478Z,31.91
2023-01-04T13:33:28.081Z,31.21
2023-01-04T13:36:04.557Z,35.34
2023-01-04T13:38:35.708Z,34.00
2023-01-04T13:41:21.172Z,36.24
2023-01-04T13:44:04.603Z,37.36
2023-01-04T13:46:33.429Z,37.26
2023-01-04T13:49:03.827Z,38.47
2023-01-04T13:51:38.061Z,38.51
2023-01-04T13:54:08.814Z,39.62
2023-01-04T13:56:38.529Z,39.07
2023-01-04T13:59:06.912Z,41.53
2023-01-04T14:01:38.881Z,42.56
2023-01-04T14:04:09.077Z,42.37
2023-01-04T14:06:44.373Z,44.15
2023-01-04T14:09:18.786Z,45.08
2023-01-04T14:12:08.554Z,52.19
2023-01-04T14:14:48.142Z,47.49
2023-01-04T14:17:27.725Z,46.91
2023-01-04T14:19:58.036Z,47.52
2023-01-04T14:22:38.260Z,48.62
2023-01-04T14:25:40.893Z,49.11
2023-01-04T14:28:27.803Z,50.73
2023-01-04T14:30:57.919Z,51.34
2023-01-04T14:33:34.013Z,51.83
2023-01-04T14:36:04.221Z,50.64
2023-01-04T14:38:36.710Z,52.82
2023-01-04T14:41:13.791Z,53.54
2023-01-04T14:43:48.981Z,54.19
2023-01-04T14:46:18.011Z,53.64
2023-01-04T14:48:46.339Z,53.21
2023-01-04T14:51:18.922Z,54.21
2023-01-04T14:53:47.623Z,52.52
2023-01-04T14:56:18.184Z,51.16
2023-01-04T14:58:47.871Z,50.64
2023-01-04T15:01:18.846Z,50.88
2023-01-04T15:03:49.865Z,53.05
2023-01-04T15:06:18.318Z,52.94
2023-01-04T15:08:46.719Z,51.68
2023-01-04T15:11:15.836Z,51.09
2023-01-04T15:13:44.593Z,51.27
2023-01-04T15:16:16.317Z,53.04
2023-01-04T15:18:45.745Z,55.12
2023-01-04T15:21:14.763Z,57.91
2023-01-04T15:23:43.012Z,59.60
2023-01-04T15:26:13.401Z,58.70
2023-01-04T15:28:41.739Z,60.51
2023-01-04T15:31:12.170Z,61.18
2023-01-04T15:33:42.242Z,61.80
2023-01-04T15:36:17.380Z,60.27
2023-01-04T15:38:48.362Z,58.43
2023-01-04T15:41:32.178Z,57.87
2023-01-04T15:44:00.545Z,57.25
2023-01-04T15:46:29.134Z,58.04
2023-01-04T15:48:58.967Z,58.60
2023-01-04T15:51:27.318Z,57.57
2023-01-04T15:53:56.812Z,56.94
2023-01-04T15:56:25.193Z,56.91
2023-01-04T15:58:54.849Z,57.01
2023-01-04T16:01:24.331Z,58.22
2023-01-04T16:03:54.244Z,59.51
2023-01-04T16:06:25.096Z,59.04
2023-01-04T16:08:53.540Z,59.03
2023-01-04T16:11:23.656Z,61.27
2023-01-04T16:13:53.616Z,63.54
2023-01-04T16:16:23.882Z,61.66
2023-01-04T16:18:53.458Z,61.45
2023-01-04T16:21:25.578Z,61.39
2023-01-04T16:24:01.831Z,60.24
2023-01-04T16:26:34.097Z,60.78
2023-01-04T16:29:03.037Z,61.70
2023-01-04T16:31:34.659Z,61.68
2023-01-04T16:34:03.246Z,60.72
2023-01-04T16:36:32.928Z,61.41
2023-01-04T16:39:03.355Z,63.85
2023-01-04T16:41:31.741Z,64.63
2023-01-04T16:44:01.017Z,64.34
2023-01-04T16:46:31.355Z,63.59
2023-01-04T16:49:01.368Z,62.86
2023-01-04T16:51:33.363Z,61.13
2023-01-04T16:54:03.669Z,60.21
2023-01-04T16:56:33.167Z,60.59
2023-01-04T16:59:02.371Z,60.99
2023-01-04T17:01:32.270Z,60.83
2023-01-04T17:04:03.092Z,60.56
2023-01-04T17:06:34.114Z,60.79
2023-01-04T17:09:03.367Z,60.31
2023-01-04T17:14:22.351Z,61.66
2023-01-04T17:16:50.691Z,63.07
2023-01-04T17:19:19.189Z,62.12
2023-01-04T17:21:49.003Z,61.97
2023-01-04T17:24:18.199Z,62.13
2023-01-04T17:26:47.347Z,62.68
2023-01-04T17:29:16.541Z,62.00
2023-01-04T17:31:46.725Z,64.34
2023-01-04T17:34:22.680Z,63.59
2023-01-04T17:36:52.825Z,63.46
2023-01-04T17:39:21.917Z,62.85
2023-01-04T17:41:53.299Z,62.61
2023-01-04T17:44:24.782Z,62.21
2023-01-04T17:46:53.173Z,62.68
2023-01-04T17:49:24.050Z,63.35
2023-01-04T17:51:58.242Z,63.78
2023-01-04T17:54:27.205Z,64.54
2023-01-04T17:56:55.863Z,64.22
2023-01-04T17:59:24.827Z,63.47
2023-01-04T18:01:53.705Z,63.67
2023-01-04T18:04:22.797Z,63.50
2023-01-04T18:06:51.815Z,63.77
2023-01-04T18:09:27.511Z,67.02
2023-01-04T18:11:56.754Z,68.03
2023-01-04T18:14:26.351Z,67.47
2023-01-04T18:16:58.452Z,68.95
2023-01-04T18:19:29.356Z,70.03
2023-01-04T18:21:58.345Z,70.07
2023-01-04T18:24:43.830Z,68.61
2023-01-04T18:27:25.435Z,70.77
2023-01-04T18:29:58.967Z,69.14
2023-01-04T18:32:28.620Z,67.58
2023-01-04T18:34:57.440Z,68.02
2023-01-04T18:37:25.760Z,67.20
2023-01-04T18:39:59.146Z,66.58
2023-01-04T18:42:27.760Z,66.52
2023-01-04T18:44:57.557Z,65.73
2023-01-04T18:47:28.852Z,65.77
2023-01-04T18:49:57.831Z,65.70
2023-01-04T18:52:26.193Z,65.32
2023-01-04T18:54:56.676Z,65.49
2023-01-04T18:57:28.850Z,66.60
2023-01-04T19:00:00.734Z,67.46
2023-01-04T19:02:29.173Z,66.83
2023-01-04T19:04:57.552Z,66.52
2023-01-04T19:07:25.961Z,66.33
2023-01-04T19:09:55.773Z,66.21
2023-01-04T19:12:24.192Z,66.48
2023-01-04T19:14:52.492Z,66.19
2023-01-04T19:17:24.576Z,65.96
2023-01-04T19:19:53.470Z,66.33
2023-01-04T19:22:21.667Z,66.43
2023-01-04T19:24:49.961Z,67.72
2023-01-04T19:27:20.629Z,70.71
2023-01-04T19:29:49.082Z,72.62
2023-01-04T19:32:21.158Z,70.63
2023-01-04T19:34:49.519Z,70.00
2023-01-04T19:37:17.962Z,72.54
2023-01-04T19:39:46.219Z,73.05
2023-01-04T19:42:14.575Z,72.31
2023-01-04T19:44:44.275Z,69.95
2023-01-04T19:47:12.576Z,68.87
2023-01-04T19:49:40.789Z,68.68
2023-01-04T19:52:09.072Z,67.96
2023-01-04T19:54:38.089Z,67.91
2023-01-04T19:57:06.469Z,67.75
2023-01-04T19:59:34.855Z,67.69
2023-01-04T20:02:04.774Z,69.38
2023-01-04T20:04:33.894Z,69.65
2023-01-04T20:07:02.116Z,69.46
2023-01-04T20:09:32.147Z,67.67
2023-01-04T20:12:00.512Z,67.29
2023-01-04T20:14:29.231Z,67.06
2023-01-04T20:16:57.609Z,67.16
2023-01-04T20:19:27.425Z,66.87
2023-01-04T20:21:59.416Z,66.17
2023-01-04T20:24:31.290Z,66.72
2023-01-04T20:26:59.593Z,66.76
2023-01-04T20:29:28.472Z,66.96
2023-01-04T20:31:57.165Z,67.02
2023-01-04T20:34:29.058Z,67.94
2023-01-04T20:37:00.894Z,68.71
2023-01-04T20:39:30.612Z,68.54
2023-01-04T20:42:16.692Z,67.24
2023-01-04T20:44:48.133Z,66.62
2023-01-04T20:47:21.075Z,66.88
2023-01-04T20:50:06.757Z,66.75
2023-01-04T20:52:36.388Z,66.37
2023-01-04T20:55:04.986Z,66.69
2023-01-04T20:57:36.782Z,69.20
2023-01-04T21:00:06.620Z,68.83
2023-01-04T21:02:38.620Z,70.13
2023-01-04T21:05:09.937Z,70.01
2023-01-04T21:07:44.065Z,72.01
2023-01-04T21:10:14.737Z,70.89
2023-01-04T21:12:43.711Z,70.18
2023-01-04T21:15:13.176Z,70.33
2023-01-04T21:17:42.779Z,71.22
2023-01-04T21:20:13.591Z,69.81
2023-01-04T21:22:43.409Z,71.31
2023-01-04T21:25:15.186Z,70.13
2023-01-04T21:27:46.958Z,68.59
2023-01-04T21:30:16.132Z,68.74
2023-01-04T21:32:48.003Z,68.60
2023-01-04T21:35:18.127Z,68.28
2023-01-04T21:37:47.726Z,67.67
2023-01-04T21:40:16.284Z,67.78
2023-01-04T21:42:45.607Z,67.54
2023-01-04T21:45:13.909Z,68.03
2023-01-04T21:47:48.706Z,67.82
2023-01-04T21:50:19.948Z,67.59
2023-01-04T21:52:53.916Z,68.25
2023-01-04T21:55:34.907Z,67.99
2023-01-04T21:58:03.571Z,68.22
2023-01-04T22:00:31.839Z,67.57
2023-01-04T22:03:00.210Z,67.29
2023-01-04T22:05:32.064Z,67.54
2023-01-04T22:08:00.316Z,67.65
2023-01-04T22:10:28.671Z,66.78
2023-01-04T22:12:56.942Z,67.51
2023-01-04T22:15:25.192Z,68.45
2023-01-04T22:17:53.641Z,67.21
2023-01-04T22:20:22.054Z,68.12
2023-01-04T22:22:51.722Z,66.99
2023-01-04T22:25:21.365Z,68.69
2023-01-04T22:27:51.200Z,68.99
2023-01-04T22:30:19.688Z,68.43
2023-01-04T22:32:49.572Z,69.70
2023-01-04T22:35:19.417Z,71.86
2023-01-04T22:37:48.990Z,70.90
2023-01-04T22:40:19.870Z,70.16
2023-01-04T22:42:54.316Z,69.41
2023-01-04T22:45:56.254Z,69.06
2023-01-04T22:48:27.023Z,69.53
2023-01-04T22:50:58.451Z,70.79
2023-01-04T22:53:26.850Z,69.92
2023-01-04T22:58:52.528Z,71.43
2023-01-04T23:01:28.063Z,73.81
2023-01-04T23:03:57.472Z,74.40
2023-01-04T23:06:31.007Z,76.11
2023-01-04T23:09:02.013Z,78.87
2023-01-04T23:11:33.557Z,79.69
2023-01-04T23:14:03.515Z,77.57
2023-01-04T23:16:33.400Z,76.22
2023-01-04T23:19:03.020Z,73.95
2023-01-04T23:21:31.595Z,73.93
2023-01-04T23:24:02.522Z,73.05
2023-01-04T23:26:33.274Z,72.39
2023-01-04T23:29:04.838Z,72.91
2023-01-04T23:31:35.799Z,72.57
2023-01-04T23:34:08.398Z,72.39
2023-01-04T23:36:44.740Z,72.55
2023-01-04T23:39:15.826Z,71.96
2023-01-04T23:41:46.208Z,71.59
2023-01-04T23:44:17.319Z,71.62
2023-01-04T23:46:46.559Z,71.30
2023-01-04T23:49:15.185Z,71.42
2023-01-04T23:51:43.836Z,71.18
2023-01-04T23:54:12.512Z,71.67
2023-01-04T23:56:41.308Z,72.26
2023-01-04T23:59:11.387Z,71.58
